createdAt,value
2022-12-23T00:01:24.570Z,29.75
2022-12-23T00:03:57.351Z,29.13
2022-12-23T00:06:25.553Z,31.90
2022-12-23T00:08:58.702Z,29.73
2022-12-23T00:11:28.124Z,30.83
2022-12-23T00:14:20.395Z,31.60
2022-12-23T00:16:51.356Z,31.77
2022-12-23T00:19:20.880Z,29.60
2022-12-23T00:21:49.392Z,30.33
2022-12-23T00:24:17.313Z,29.88
2022-12-23T00:26:45.149Z,29.08
2022-12-23T00:29:13.054Z,29.90
2022-12-23T00:31:41.070Z,29.65
2022-12-23T00:34:10.432Z,29.83
2022-12-23T00:36:40.926Z,29.25
2022-12-23T00:39:30.740Z,27.95
2022-12-23T00:42:27.756Z,28.42
2022-12-23T00:45:15.729Z,28.77
2022-12-23T00:48:01.918Z,29.00
2022-12-23T00:50:30.742Z,30.42
2022-12-23T00:53:00.365Z,31.90
2022-12-23T00:55:28.464Z,28.20
2022-12-23T00:57:56.496Z,30.00
2022-12-23T01:00:45.295Z,30.02
2022-12-23T01:03:28.461Z,30.23
2022-12-23T01:05:59.284Z,30.58
2022-12-23T01:08:29.008Z,30.65
2022-12-23T01:10:56.992Z,31.83
2022-12-23T01:13:25.028Z,27.58
2022-12-23T01:15:52.908Z,31.30
2022-12-23T01:18:20.817Z,31.58
2022-12-23T01:20:48.731Z,30.95
2022-12-23T01:23:16.620Z,32.13
2022-12-23T01:25:45.835Z,32.53
2022-12-23T01:28:13.731Z,30.25
2022-12-23T01:30:41.668Z,31.80
2022-12-23T01:33:09.695Z,30.30
2022-12-23T01:35:37.657Z,31.00
2022-12-23T01:38:05.534Z,30.70
2022-12-23T01:40:36.429Z,32.63
2022-12-23T01:43:04.773Z,31.83
2022-12-23T01:45:34.559Z,29.80
2022-12-23T01:48:06.115Z,30.88
2022-12-23T01:50:37.595Z,30.25
2022-12-23T01:53:09.472Z,30.48
2022-12-23T01:55:41.605Z,29.38
2022-12-23T01:58:14.360Z,29.35
2022-12-23T02:01:01.184Z,31.42
2022-12-23T02:03:44.848Z,30.45
2022-12-23T02:06:36.630Z,30.25
2022-12-23T02:09:20.238Z,28.75
2022-12-23T02:12:21.461Z,27.40
2022-12-23T02:15:36.232Z,29.30
2022-12-23T02:18:21.923Z,28.45
2022-12-23T02:21:18.110Z,29.55
2022-12-23T02:24:17.510Z,27.17
2022-12-23T02:27:08.615Z,28.45
2022-12-23T02:30:04.437Z,28.45
2022-12-23T02:32:44.859Z,28.05
2022-12-23T02:35:15.950Z,27.45
2022-12-23T02:37:53.035Z,29.42
2022-12-23T02:40:30.232Z,28.45
2022-12-23T02:43:03.679Z,29.33
2022-12-23T02:45:37.736Z,28.35
2022-12-23T02:48:13.266Z,27.52
2022-12-23T02:50:44.167Z,28.88
2022-12-23T02:53:20.106Z,27.15
2022-12-23T02:55:50.316Z,27.25
2022-12-23T02:58:22.135Z,27.98
2022-12-23T03:00:51.686Z,27.13
2022-12-23T03:03:22.329Z,28.30
2022-12-23T03:05:52.306Z,26.00
2022-12-23T03:08:25.105Z,27.25
2022-12-23T03:11:04.547Z,26.77
2022-12-23T03:13:48.573Z,26.30
2022-12-23T03:16:23.588Z,25.75
2022-12-23T03:19:09.071Z,25.80
2022-12-23T03:21:44.371Z,24.83
2022-12-23T03:24:23.155Z,25.92
2022-12-23T03:26:56.779Z,24.80
2022-12-23T03:29:29.636Z,24.27
2022-12-23T03:32:00.880Z,23.92
2022-12-23T03:34:35.334Z,23.45
2022-12-23T03:37:07.425Z,25.33
2022-12-23T03:39:39.630Z,25.60
2022-12-23T03:42:14.374Z,23.73
2022-12-23T03:45:19.107Z,24.10
2022-12-23T03:47:44.580Z,24.75
2022-12-23T03:50:16.706Z,26.90
2022-12-23T03:52:51.460Z,22.52
2022-12-23T03:55:25.137Z,24.25
2022-12-23T03:57:59.812Z,25.77
2022-12-23T04:00:31.415Z,24.30
2022-12-23T04:03:07.165Z,24.35
2022-12-23T04:05:40.644Z,25.58
2022-12-23T04:08:14.434Z,24.05
2022-12-23T04:10:42.869Z,24.80
2022-12-23T04:13:11.045Z,23.58
2022-12-23T04:15:41.196Z,24.73
2022-12-23T04:18:10.717Z,24.88
2022-12-23T04:20:40.032Z,23.30
2022-12-23T04:23:07.949Z,23.63
2022-12-23T04:25:36.311Z,23.83
2022-12-23T04:28:04.519Z,22.90
2022-12-23T04:30:34.757Z,22.48
2022-12-23T04:33:03.440Z,22.00
2022-12-23T04:35:31.874Z,22.80
2022-12-23T04:38:01.285Z,23.38
2022-12-23T04:40:29.246Z,20.45
2022-12-23T04:42:57.169Z,21.17
2022-12-23T04:45:25.031Z,21.40
2022-12-23T04:47:54.449Z,21.50
2022-12-23T04:50:22.437Z,20.75
2022-12-23T04:52:50.606Z,21.63
2022-12-23T04:55:20.100Z,20.60
2022-12-23T04:57:47.938Z,21.50
2022-12-23T05:00:16.766Z,20.80
2022-12-23T05:02:44.804Z,21.63
2022-12-23T05:05:12.867Z,21.40
2022-12-23T05:07:40.767Z,22.02
2022-12-23T05:10:10.029Z,20.70
2022-12-23T05:12:39.314Z,21.52
2022-12-23T05:15:09.060Z,22.70
2022-12-23T05:17:36.946Z,23.00
2022-12-23T05:20:05.183Z,22.42
2022-12-23T05:22:33.094Z,22.38
2022-12-23T05:25:01.027Z,22.80
2022-12-23T05:27:29.068Z,23.60
2022-12-23T05:29:58.326Z,22.80
2022-12-23T05:32:26.269Z,23.15
2022-12-23T05:34:54.085Z,24.02
2022-12-23T05:37:22.198Z,22.15
2022-12-23T05:39:50.130Z,23.40
2022-12-23T05:42:19.455Z,24.65
2022-12-23T05:44:47.540Z,23.63
2022-12-23T05:47:16.842Z,23.48
2022-12-23T05:49:44.819Z,22.10
2022-12-23T05:52:12.904Z,22.63
2022-12-23T05:54:41.875Z,21.85
2022-12-23T05:57:09.747Z,20.08
2022-12-23T05:59:37.613Z,20.35
2022-12-23T06:02:06.462Z,21.33
2022-12-23T06:04:35.992Z,19.75
2022-12-23T06:07:03.853Z,21.40
2022-12-23T06:09:32.023Z,20.40
2022-12-23T06:11:59.932Z,19.55
2022-12-23T06:14:29.374Z,19.58
2022-12-23T06:16:57.640Z,19.35
2022-12-23T06:19:25.788Z,20.58
2022-12-23T06:21:55.036Z,19.50
2022-12-23T06:24:23.335Z,21.40
2022-12-23T06:26:56.700Z,20.38
2022-12-23T06:29:25.186Z,20.70
2022-12-23T06:31:53.461Z,20.60
2022-12-23T06:34:21.438Z,20.67
2022-12-23T06:36:49.383Z,19.63
2022-12-23T06:39:18.619Z,22.25
2022-12-23T06:41:46.658Z,21.50
2022-12-23T06:44:14.666Z,20.67
2022-12-23T06:46:42.858Z,22.35
2022-12-23T06:49:13.382Z,24.27
2022-12-23T06:51:42.293Z,22.95
2022-12-23T06:54:11.701Z,23.08
2022-12-23T06:56:41.200Z,21.50
2022-12-23T06:59:09.174Z,24.10
2022-12-23T07:01:37.226Z,23.10
2022-12-23T07:04:05.469Z,23.10
2022-12-23T07:06:33.585Z,21.42
2022-12-23T07:09:01.475Z,23.02
2022-12-23T07:11:29.481Z,21.98
2022-12-23T07:13:59.476Z,22.05
2022-12-23T07:16:27.677Z,23.02
2022-12-23T07:18:55.547Z,21.60
2022-12-23T07:21:28.877Z,20.45
2022-12-23T07:23:58.197Z,21.27
2022-12-23T07:26:26.097Z,22.00
2022-12-23T07:28:53.897Z,19.75
2022-12-23T07:31:23.503Z,21.67
2022-12-23T07:33:51.420Z,21.25
2022-12-23T07:36:19.363Z,20.90
2022-12-23T07:38:50.613Z,20.05
2022-12-23T07:41:18.597Z,19.50
2022-12-23T07:43:47.044Z,19.67
2022-12-23T07:46:15.385Z,19.25
2022-12-23T07:48:44.785Z,18.02
2022-12-23T07:51:12.644Z,19.55
2022-12-23T07:53:40.607Z,18.85
2022-12-23T07:56:09.185Z,18.15
2022-12-23T07:58:37.089Z,17.40
2022-12-23T08:01:09.047Z,19.27
2022-12-23T08:03:38.184Z,17.73
2022-12-23T08:06:09.729Z,17.70
2022-12-23T08:08:38.524Z,16.42
2022-12-23T08:11:08.588Z,17.27
2022-12-23T08:13:38.439Z,16.20
2022-12-23T08:16:08.439Z,16.15
2022-12-23T08:18:37.946Z,15.10
2022-12-23T08:21:09.312Z,14.60
2022-12-23T08:23:37.471Z,13.98
2022-12-23T08:26:07.557Z,14.60
2022-12-23T08:28:36.319Z,13.95
2022-12-23T08:31:06.612Z,16.02
2022-12-23T08:33:35.065Z,15.02
2022-12-23T08:36:03.631Z,14.88
2022-12-23T08:38:34.592Z,14.88
2022-12-23T08:41:02.660Z,15.20
2022-12-23T08:43:35.859Z,14.35
2022-12-23T08:46:05.957Z,15.30
2022-12-23T08:48:34.868Z,15.38
2022-12-23T08:51:07.069Z,14.15
2022-12-23T08:53:38.148Z,15.07
2022-12-23T08:56:07.901Z,16.20
2022-12-23T08:58:37.780Z,17.35
2022-12-23T09:01:07.017Z,16.15
2022-12-23T09:03:35.661Z,15.82
2022-12-23T09:06:05.960Z,15.30
2022-12-23T09:08:33.817Z,17.00
2022-12-23T09:11:03.349Z,16.17
2022-12-23T09:13:35.521Z,15.85
2022-12-23T09:16:04.167Z,16.42
2022-12-23T09:20:40.674Z,16.92
2022-12-23T09:23:08.657Z,16.92
2022-12-23T09:25:37.881Z,17.13
2022-12-23T09:28:07.420Z,16.52
2022-12-23T09:30:35.440Z,18.10
2022-12-23T09:33:03.907Z,17.65
2022-12-23T09:35:33.316Z,15.98
2022-12-23T09:38:02.652Z,17.45
2022-12-23T09:40:33.292Z,17.40
2022-12-23T09:43:14.144Z,16.17
2022-12-23T09:45:57.509Z,16.15
2022-12-23T09:48:30.849Z,16.02
2022-12-23T09:50:59.106Z,15.45
2022-12-23T09:53:46.107Z,15.13
2022-12-23T09:56:19.583Z,15.10
2022-12-23T10:01:24.509Z,13.68
2022-12-23T10:04:20.572Z,13.90
2022-12-23T10:06:56.305Z,13.20
2022-12-23T10:09:29.928Z,13.93
2022-12-23T10:11:59.309Z,14.80
2022-12-23T10:14:32.124Z,14.25
2022-12-23T10:17:07.895Z,16.10
2022-12-23T10:19:41.939Z,16.08
2022-12-23T10:22:16.863Z,14.93
2022-12-23T10:24:48.002Z,17.80
2022-12-23T10:27:24.287Z,16.42
2022-12-23T10:29:52.629Z,17.13
2022-12-23T10:32:28.016Z,16.65
2022-12-23T10:35:01.895Z,16.80
2022-12-23T10:37:35.620Z,15.23
2022-12-23T10:42:46.954Z,13.50
2022-12-23T10:45:39.639Z,15.52
2022-12-23T10:48:24.102Z,14.30
2022-12-23T10:50:59.628Z,14.52
2022-12-23T10:53:36.714Z,13.65
2022-12-23T10:56:08.491Z,13.32
2022-12-23T10:58:39.467Z,13.50
2022-12-23T11:01:15.253Z,14.00
2022-12-23T11:03:57.398Z,13.88
2022-12-23T11:06:28.991Z,14.32
2022-12-23T11:09:03.919Z,14.48
2022-12-23T11:12:01.511Z,15.38
2022-12-23T11:14:36.980Z,16.05
2022-12-23T11:17:06.705Z,14.52
2022-12-23T11:19:35.091Z,14.45
2022-12-23T11:22:03.481Z,13.85
2022-12-23T11:24:38.029Z,14.43
2022-12-23T11:27:16.773Z,14.50
2022-12-23T11:29:48.038Z,15.10
2022-12-23T11:32:19.590Z,13.38
2022-12-23T11:34:49.440Z,12.60
2022-12-23T11:37:33.087Z,13.80
2022-12-23T11:40:01.292Z,11.93
2022-12-23T11:42:31.976Z,15.20
2022-12-23T11:45:01.349Z,11.60
2022-12-23T11:47:34.180Z,12.05
2022-12-23T11:50:05.384Z,11.90
2022-12-23T11:52:35.231Z,12.60
2022-12-23T11:55:08.217Z,13.48
2022-12-23T11:57:42.894Z,12.40
2022-12-23T12:00:22.314Z,13.68
2022-12-23T12:02:53.960Z,15.00
2022-12-23T12:05:27.258Z,14.32
2022-12-23T12:08:01.076Z,14.43
2022-12-23T12:10:31.575Z,13.80
2022-12-23T12:13:04.904Z,11.75
2022-12-23T12:15:42.660Z,11.73
2022-12-23T12:18:14.386Z,11.95
2022-12-23T12:20:46.095Z,10.98
2022-12-23T12:23:19.321Z,11.55
2022-12-23T12:25:52.112Z,12.13
2022-12-23T12:28:27.115Z,11.38
2022-12-23T12:31:02.245Z,11.25
2022-12-23T12:33:37.431Z,11.75
2022-12-23T12:36:13.640Z,11.93
2022-12-23T12:38:41.791Z,11.10
2022-12-23T12:41:18.112Z,13.63
2022-12-23T12:43:54.370Z,11.88
2022-12-23T12:46:31.872Z,11.05
2022-12-23T12:49:07.207Z,10.73
2022-12-23T12:51:41.392Z,12.48
2022-12-23T12:54:20.880Z,12.15
2022-12-23T12:56:51.388Z,12.48
2022-12-23T12:59:26.773Z,12.00
2022-12-23T13:02:05.318Z,12.60
2022-12-23T13:05:00.673Z,12.05
2022-12-23T13:07:39.411Z,12.48
2022-12-23T13:10:16.109Z,12.52
2022-12-23T13:12:58.267Z,13.30
2022-12-23T13:15:34.488Z,12.65
2022-12-23T13:18:17.289Z,13.82
2022-12-23T13:20:53.501Z,12.77
2022-12-23T13:23:44.791Z,13.65
2022-12-23T13:26:27.941Z,15.25
2022-12-23T13:29:04.523Z,14.35
2022-12-23T13:31:48.127Z,14.00
2022-12-23T13:34:31.342Z,14.93
2022-12-23T13:37:09.691Z,15.55
2022-12-23T13:39:51.017Z,14.20
2022-12-23T13:42:26.344Z,15.70
2022-12-23T13:44:56.304Z,17.40
2022-12-23T13:47:35.263Z,16.30
2022-12-23T13:50:10.089Z,15.95
2022-12-23T13:52:55.662Z,17.08
2022-12-23T13:55:40.140Z,16.02
2022-12-23T13:58:14.670Z,14.85
2022-12-23T14:00:43.058Z,16.20
2022-12-23T14:03:25.858Z,16.15
2022-12-23T14:05:54.834Z,15.85
2022-12-23T14:08:32.559Z,14.10
2022-12-23T14:11:03.377Z,15.60
2022-12-23T14:13:35.112Z,16.58
2022-12-23T14:16:31.584Z,14.45
2022-12-23T14:19:30.890Z,16.27
2022-12-23T14:22:10.867Z,17.45
2022-12-23T14:25:06.569Z,17.92
2022-12-23T14:27:48.079Z,16.48
2022-12-23T14:30:18.477Z,17.00
2022-12-23T14:32:49.526Z,18.17
2022-12-23T14:35:24.739Z,18.75
2022-12-23T14:38:37.791Z,18.50
2022-12-23T14:41:25.240Z,16.98
2022-12-23T14:44:02.828Z,18.02
2022-12-23T14:46:58.882Z,17.27
2022-12-23T14:49:47.721Z,16.95
2022-12-23T14:52:44.613Z,17.25
2022-12-23T14:55:41.034Z,17.08
2022-12-23T14:58:22.375Z,17.50
2022-12-23T15:00:56.805Z,17.27
2022-12-23T15:03:24.870Z,15.40
2022-12-23T15:05:53.470Z,15.35
2022-12-23T15:08:32.086Z,15.68
2022-12-23T15:11:01.001Z,15.27
2022-12-23T15:13:31.128Z,13.60
2022-12-23T15:16:01.770Z,14.32
2022-12-23T15:18:30.385Z,14.98
2022-12-23T15:21:04.569Z,12.43
2022-12-23T15:23:34.320Z,12.43
2022-12-23T15:26:03.663Z,12.60
2022-12-23T15:28:38.431Z,12.68
2022-12-23T15:31:08.219Z,12.50
2022-12-23T15:34:02.857Z,11.65
2022-12-23T15:36:32.345Z,11.60
2022-12-23T15:39:04.130Z,11.00
2022-12-23T15:41:32.779Z,10.52
2022-12-23T15:44:01.974Z,9.75
2022-12-23T15:46:32.604Z,9.70
2022-12-23T15:49:00.947Z,9.65
2022-12-23T15:54:28.983Z,12.20
2022-12-23T15:56:59.213Z,10.18
2022-12-23T15:59:33.020Z,10.75
2022-12-23T16:02:40.381Z,11.77
2022-12-23T16:05:00.440Z,10.90
2022-12-23T16:07:34.319Z,13.02
2022-12-23T16:10:06.258Z,12.85
2022-12-23T16:12:35.733Z,13.35
2022-12-23T16:15:04.773Z,13.32
2022-12-23T16:17:34.946Z,12.50
2022-12-23T16:20:21.658Z,14.07
2022-12-23T16:22:52.933Z,12.82
2022-12-23T16:25:26.192Z,13.95
2022-12-23T16:27:58.686Z,14.52
2022-12-23T16:30:33.138Z,14.60
2022-12-23T16:33:04.001Z,15.25
2022-12-23T16:35:38.890Z,13.57
2022-12-23T16:38:17.410Z,14.90
2022-12-23T16:40:48.554Z,14.73
2022-12-23T16:43:17.481Z,13.27
2022-12-23T16:45:46.634Z,14.70
2022-12-23T16:48:21.355Z,15.27
2022-12-23T16:50:56.090Z,14.93
2022-12-23T16:53:23.990Z,14.55
2022-12-23T16:55:58.510Z,14.77
2022-12-23T16:58:28.950Z,15.40
2022-12-23T17:00:58.333Z,15.35
2022-12-23T17:04:16.342Z,13.43
2022-12-23T17:06:46.828Z,15.02
2022-12-23T17:09:15.263Z,14.48
2022-12-23T17:11:46.261Z,15.10
2022-12-23T17:14:18.556Z,15.48
2022-12-23T17:16:47.147Z,14.25
2022-12-23T17:19:23.344Z,15.02
2022-12-23T17:22:00.890Z,15.10
2022-12-23T17:24:29.074Z,14.57
2022-12-23T17:26:58.684Z,14.07
2022-12-23T17:29:27.061Z,12.82
2022-12-23T17:31:55.505Z,14.07
2022-12-23T17:34:25.349Z,13.95
2022-12-23T17:36:53.543Z,13.93
2022-12-23T17:39:22.726Z,13.48
2022-12-23T17:41:51.287Z,14.65
2022-12-23T17:44:20.869Z,16.40
2022-12-23T17:46:49.088Z,15.10
2022-12-23T17:49:17.250Z,17.40
2022-12-23T17:51:45.663Z,16.48
2022-12-23T17:54:22.655Z,16.50
2022-12-23T17:56:51.047Z,15.60
2022-12-23T17:59:20.396Z,15.70
2022-12-23T18:01:48.399Z,16.17
2022-12-23T18:04:16.610Z,16.13
2022-12-23T18:06:44.693Z,16.35
2022-12-23T18:09:12.584Z,15.77
2022-12-23T18:11:43.350Z,15.90
2022-12-23T18:14:17.388Z,16.13
2022-12-23T18:16:47.334Z,15.02
2022-12-23T18:19:18.822Z,15.95
2022-12-23T18:21:47.536Z,14.23
2022-12-23T18:24:15.854Z,15.80
2022-12-23T18:26:44.229Z,14.35
2022-12-23T18:29:12.221Z,14.45
2022-12-23T18:31:51.049Z,16.50
2022-12-23T18:34:20.630Z,15.57
2022-12-23T18:36:51.531Z,15.38
2022-12-23T18:39:20.030Z,15.30
2022-12-23T18:41:48.138Z,14.65
2022-12-23T18:44:18.369Z,13.82
2022-12-23T18:46:48.219Z,14.43
2022-12-23T18:49:16.273Z,14.30
2022-12-23T18:51:44.149Z,14.68
2022-12-23T18:54:14.779Z,15.18
2022-12-23T18:56:43.269Z,14.90
2022-12-23T18:59:16.695Z,15.70
2022-12-23T19:01:44.688Z,15.95
2022-12-23T19:04:14.261Z,15.45
2022-12-23T19:06:42.415Z,14.63
2022-12-23T19:09:15.725Z,14.48
2022-12-23T19:11:43.772Z,14.27
2022-12-23T19:14:12.829Z,14.75
2022-12-23T19:16:44.659Z,14.68
2022-12-23T19:19:16.892Z,13.57
2022-12-23T19:21:44.847Z,13.85
2022-12-23T19:24:12.775Z,13.80
2022-12-23T19:26:40.679Z,13.65
2022-12-23T19:29:10.395Z,13.40
2022-12-23T19:31:38.546Z,13.73
2022-12-23T19:34:11.201Z,13.35
2022-12-23T19:36:44.734Z,14.63
2022-12-23T19:39:16.184Z,14.05
2022-12-23T19:41:44.739Z,13.25
2022-12-23T19:44:12.618Z,14.20
2022-12-23T19:46:40.493Z,14.70
2022-12-23T19:49:09.946Z,14.80
2022-12-23T19:51:39.758Z,15.07
2022-12-23T19:54:09.494Z,15.00
2022-12-23T19:56:37.457Z,14.55
2022-12-23T19:59:05.531Z,14.75
2022-12-23T20:01:33.834Z,15.52
2022-12-23T20:04:01.892Z,14.35
2022-12-23T20:06:34.118Z,14.45
2022-12-23T20:09:04.223Z,15.60
2022-12-23T20:11:36.896Z,15.82
2022-12-23T20:14:05.803Z,15.23
2022-12-23T20:16:35.277Z,15.27
2022-12-23T20:19:04.054Z,15.20
2022-12-23T20:21:32.153Z,14.38
2022-12-23T20:24:00.100Z,15.57
2022-12-23T20:26:29.187Z,16.10
2022-12-23T20:28:58.892Z,15.95
2022-12-23T20:31:28.609Z,15.70
2022-12-23T20:33:57.987Z,15.43
2022-12-23T20:36:28.554Z,15.65
2022-12-23T20:38:57.020Z,16.55
2022-12-23T20:41:27.202Z,16.88
2022-12-23T20:46:45.083Z,14.65
2022-12-23T20:49:13.655Z,15.45
2022-12-23T20:51:41.695Z,15.77
2022-12-23T20:54:09.791Z,16.50
2022-12-23T20:56:37.862Z,15.13
2022-12-23T20:59:05.757Z,15.98
2022-12-23T21:01:36.238Z,15.13
2022-12-23T21:04:08.445Z,15.43
2022-12-23T21:06:37.400Z,14.27
2022-12-23T21:09:07.042Z,13.88
2022-12-23T21:11:40.346Z,13.82
2022-12-23T21:14:08.464Z,16.05
2022-12-23T21:16:37.425Z,14.65
2022-12-23T21:19:07.867Z,15.13
2022-12-23T21:21:36.209Z,16.52
2022-12-23T21:24:05.774Z,15.82
2022-12-23T21:26:35.134Z,14.55
2022-12-23T21:29:05.706Z,15.70
2022-12-23T21:31:35.189Z,16.13
2022-12-23T21:34:03.817Z,14.40
2022-12-23T21:36:34.717Z,15.60
2022-12-23T21:39:03.488Z,15.85
2022-12-23T21:41:37.339Z,15.27
2022-12-23T21:44:06.492Z,14.82
2022-12-23T21:46:35.171Z,15.18
2022-12-23T21:49:04.095Z,16.10
2022-12-23T21:51:40.022Z,15.68
2022-12-23T21:54:10.080Z,14.95
2022-12-23T21:56:39.008Z,18.80
2022-12-23T21:59:08.544Z,15.88
2022-12-23T22:01:36.489Z,14.48
2022-12-23T22:04:05.153Z,15.93
2022-12-23T22:06:37.233Z,15.18
2022-12-23T22:09:06.561Z,16.40
2022-12-23T22:11:37.023Z,15.00
2022-12-23T22:14:06.914Z,15.48
2022-12-23T22:16:36.147Z,15.27
2022-12-23T22:19:05.677Z,15.00
2022-12-23T22:21:36.722Z,15.45
2022-12-23T22:24:05.493Z,15.63
2022-12-23T22:26:34.545Z,14.98
2022-12-23T22:29:06.618Z,14.77
2022-12-23T22:31:38.142Z,16.00
2022-12-23T22:34:07.662Z,13.73
2022-12-23T22:36:37.369Z,14.63
2022-12-23T22:39:07.784Z,15.48
2022-12-23T22:41:36.383Z,14.13
2022-12-23T22:44:04.876Z,16.02
2022-12-23T22:46:33.117Z,15.70
2022-12-23T22:49:01.036Z,15.13
2022-12-23T22:51:32.037Z,14.57
2022-12-23T22:54:03.356Z,14.35
2022-12-23T22:56:31.506Z,14.07
2022-12-23T22:58:59.658Z,14.38
2022-12-23T23:01:29.547Z,14.38
2022-12-23T23:03:58.991Z,14.05
2022-12-23T23:06:30.786Z,14.57
2022-12-23T23:08:58.917Z,14.00
2022-12-23T23:11:29.123Z,13.98
2022-12-23T23:13:58.171Z,12.75
2022-12-23T23:16:27.376Z,14.95
2022-12-23T23:18:55.633Z,14.15
2022-12-23T23:21:23.681Z,14.05
2022-12-23T23:23:51.771Z,12.40
2022-12-23T23:26:20.824Z,13.27
2022-12-23T23:28:50.146Z,14.10
2022-12-23T23:34:05.862Z,13.10
2022-12-23T23:36:33.951Z,12.82
2022-12-23T23:39:02.327Z,12.32
2022-12-23T23:41:31.070Z,12.40
2022-12-23T23:44:00.279Z,12.05
2022-12-23T23:46:28.204Z,11.32
2022-12-23T23:48:56.041Z,13.10
2022-12-23T23:51:24.492Z,12.80
2022-12-23T23:53:52.434Z,12.80
2022-12-23T23:56:25.433Z,13.07
2022-12-23T23:58:54.460Z,12.50
